sensor_id;sensor_type;location;lat;lon;timestamp;P1;durP1;ratioP1;P2;durP2;ratioP2
38117;SDS011;23928;47.562;7.508;2023-05-07T00:00:24;4.47;;;2.10;;
38117;SDS011;23928;47.562;7.508;2023-05-07T00:02:50;2.63;;;2.10;;
38117;SDS011;23928;47.562;7.508;2023-05-07T00:05:16;2.43;;;2.20;;
38117;SDS011;23928;47.562;7.508;2023-05-07T00:07:42;2.60;;;2.40;;
38117;SDS011;23928;47.562;7.508;2023-05-07T00:10:08;2.40;;;2.20;;
38117;SDS011;23928;47.562;7.508;2023-05-07T00:12:35;5.17;;;2.83;;
38117;SDS011;23928;47.562;7.508;2023-05-07T00:15:03;3.17;;;2.47;;
38117;SDS011;23928;47.562;7.508;2023-05-07T00:17:29;3.47;;;2.87;;
38117;SDS011;23928;47.562;7.508;2023-05-07T00:19:55;2.93;;;2.37;;
38117;SDS011;23928;47.562;7.508;2023-05-07T00:22:21;3.97;;;2.47;;
38117;SDS011;23928;47.562;7.508;2023-05-07T00:24:46;6.30;;;2.53;;
38117;SDS011;23928;47.562;7.508;2023-05-07T00:27:12;2.63;;;2.30;;
38117;SDS011;23928;47.562;7.508;2023-05-07T00:29:37;4.07;;;2.57;;
38117;SDS011;23928;47.562;7.508;2023-05-07T00:32:03;4.67;;;2.50;;
38117;SDS011;23928;47.562;7.508;2023-05-07T00:34:29;4.00;;;2.77;;
38117;SDS011;23928;47.562;7.508;2023-05-07T00:36:55;2.93;;;2.20;;
38117;SDS011;23928;47.562;7.508;2023-05-07T00:39:20;3.77;;;2.47;;
38117;SDS011;23928;47.562;7.508;2023-05-07T00:41:46;3.40;;;2.40;;
38117;SDS011;23928;47.562;7.508;2023-05-07T00:44:12;4.37;;;2.40;;
38117;SDS011;23928;47.562;7.508;2023-05-07T00:46:38;3.93;;;2.63;;
38117;SDS011;23928;47.562;7.508;2023-05-07T00:49:03;3.53;;;2.10;;
38117;SDS011;23928;47.562;7.508;2023-05-07T00:51:30;2.70;;;2.27;;
38117;SDS011;23928;47.562;7.508;2023-05-07T00:53:55;2.20;;;2.00;;
38117;SDS011;23928;47.562;7.508;2023-05-07T00:56:21;3.67;;;2.40;;
38117;SDS011;23928;47.562;7.508;2023-05-07T00:58:47;3.33;;;2.30;;
38117;SDS011;23928;47.562;7.508;2023-05-07T01:01:13;3.60;;;2.13;;
38117;SDS011;23928;47.562;7.508;2023-05-07T01:03:41;4.33;;;2.70;;
38117;SDS011;23928;47.562;7.508;2023-05-07T01:06:07;2.77;;;2.57;;
38117;SDS011;23928;47.562;7.508;2023-05-07T01:08:34;2.87;;;2.27;;
38117;SDS011;23928;47.562;7.508;2023-05-07T01:11:01;4.43;;;2.70;;
38117;SDS011;23928;47.562;7.508;2023-05-07T01:13:28;4.97;;;2.60;;
38117;SDS011;23928;47.562;7.508;2023-05-07T01:15:55;4.17;;;2.90;;
38117;SDS011;23928;47.562;7.508;2023-05-07T01:18:20;3.90;;;2.63;;
38117;SDS011;23928;47.562;7.508;2023-05-07T01:20:46;5.17;;;2.80;;
38117;SDS011;23928;47.562;7.508;2023-05-07T01:23:12;3.37;;;2.30;;
38117;SDS011;23928;47.562;7.508;2023-05-07T01:25:38;4.27;;;3.10;;
38117;SDS011;23928;47.562;7.508;2023-05-07T01:28:03;3.47;;;2.70;;
38117;SDS011;23928;47.562;7.508;2023-05-07T01:30:30;4.60;;;2.57;;
38117;SDS011;23928;47.562;7.508;2023-05-07T01:35:24;3.30;;;2.70;;
38117;SDS011;23928;47.562;7.508;2023-05-07T01:38:02;3.90;;;2.60;;
38117;SDS011;23928;47.562;7.508;2023-05-07T01:40:29;5.87;;;2.33;;
38117;SDS011;23928;47.562;7.508;2023-05-07T01:42:55;2.30;;;2.10;;
38117;SDS011;23928;47.562;7.508;2023-05-07T01:45:21;2.43;;;2.23;;
38117;SDS011;23928;47.562;7.508;2023-05-07T01:47:47;4.13;;;2.63;;
38117;SDS011;23928;47.562;7.508;2023-05-07T01:50:15;3.27;;;2.50;;
38117;SDS011;23928;47.562;7.508;2023-05-07T01:52:43;2.30;;;2.10;;
38117;SDS011;23928;47.562;7.508;2023-05-07T01:55:09;3.10;;;2.30;;
38117;SDS011;23928;47.562;7.508;2023-05-07T01:57:34;3.57;;;2.37;;
38117;SDS011;23928;47.562;7.508;2023-05-07T02:00:00;2.73;;;2.53;;
38117;SDS011;23928;47.562;7.508;2023-05-07T02:02:27;3.77;;;2.30;;
38117;SDS011;23928;47.562;7.508;2023-05-07T02:04:53;4.50;;;2.80;;
38117;SDS011;23928;47.562;7.508;2023-05-07T02:07:18;2.90;;;2.70;;
38117;SDS011;23928;47.562;7.508;2023-05-07T02:09:44;3.10;;;2.80;;
38117;SDS011;23928;47.562;7.508;2023-05-07T02:12:10;3.70;;;2.87;;
38117;SDS011;23928;47.562;7.508;2023-05-07T02:14:36;4.27;;;2.83;;
38117;SDS011;23928;47.562;7.508;2023-05-07T02:17:01;3.83;;;2.90;;
38117;SDS011;23928;47.562;7.508;2023-05-07T02:19:27;2.70;;;2.37;;
38117;SDS011;23928;47.562;7.508;2023-05-07T02:21:52;4.30;;;2.90;;
38117;SDS011;23928;47.562;7.508;2023-05-07T02:24:19;3.03;;;2.67;;
38117;SDS011;23928;47.562;7.508;2023-05-07T02:26:45;3.10;;;2.80;;
38117;SDS011;23928;47.562;7.508;2023-05-07T02:29:10;5.83;;;3.03;;
38117;SDS011;23928;47.562;7.508;2023-05-07T02:31:36;4.17;;;2.67;;
38117;SDS011;23928;47.562;7.508;2023-05-07T02:34:01;4.43;;;3.17;;
38117;SDS011;23928;47.562;7.508;2023-05-07T02:36:27;3.90;;;3.27;;
38117;SDS011;23928;47.562;7.508;2023-05-07T02:38:53;3.77;;;3.13;;
38117;SDS011;23928;47.562;7.508;2023-05-07T02:41:19;3.83;;;2.67;;
38117;SDS011;23928;47.562;7.508;2023-05-07T02:43:45;3.30;;;2.80;;
38117;SDS011;23928;47.562;7.508;2023-05-07T02:46:11;5.63;;;3.20;;
38117;SDS011;23928;47.562;7.508;2023-05-07T02:48:36;8.50;;;3.23;;
38117;SDS011;23928;47.562;7.508;2023-05-07T02:51:02;3.27;;;2.97;;
38117;SDS011;23928;47.562;7.508;2023-05-07T02:53:28;5.43;;;3.30;;
38117;SDS011;23928;47.562;7.508;2023-05-07T02:55:58;3.63;;;2.90;;
38117;SDS011;23928;47.562;7.508;2023-05-07T02:58:25;5.43;;;3.10;;
38117;SDS011;23928;47.562;7.508;2023-05-07T03:00:51;3.20;;;2.87;;
38117;SDS011;23928;47.562;7.508;2023-05-07T03:03:17;4.83;;;3.00;;
38117;SDS011;23928;47.562;7.508;2023-05-07T03:05:43;3.77;;;2.97;;
38117;SDS011;23928;47.562;7.508;2023-05-07T03:08:09;5.57;;;3.07;;
38117;SDS011;23928;47.562;7.508;2023-05-07T03:10:35;3.37;;;3.07;;
38117;SDS011;23928;47.562;7.508;2023-05-07T03:13:02;4.87;;;3.33;;
38117;SDS011;23928;47.562;7.508;2023-05-07T03:15:28;3.43;;;3.10;;
38117;SDS011;23928;47.562;7.508;2023-05-07T03:17:53;3.40;;;3.10;;
38117;SDS011;23928;47.562;7.508;2023-05-07T03:20:19;3.80;;;3.10;;
38117;SDS011;23928;47.562;7.508;2023-05-07T03:22:45;4.10;;;3.27;;
38117;SDS011;23928;47.562;7.508;2023-05-07T03:25:10;2.17;;;2.07;;
38117;SDS011;23928;47.562;7.508;2023-05-07T03:27:36;5.30;;;3.20;;
38117;SDS011;23928;47.562;7.508;2023-05-07T03:30:03;6.60;;;3.33;;
38117;SDS011;23928;47.562;7.508;2023-05-07T03:32:29;3.33;;;3.03;;
38117;SDS011;23928;47.562;7.508;2023-05-07T03:34:54;7.73;;;3.70;;
38117;SDS011;23928;47.562;7.508;2023-05-07T03:37:20;8.37;;;3.30;;
38117;SDS011;23928;47.562;7.508;2023-05-07T03:39:46;3.57;;;3.27;;
38117;SDS011;23928;47.562;7.508;2023-05-07T03:42:12;4.37;;;3.30;;
38117;SDS011;23928;47.562;7.508;2023-05-07T03:44:38;4.07;;;3.57;;
38117;SDS011;23928;47.562;7.508;2023-05-07T03:47:03;5.63;;;3.93;;
38117;SDS011;23928;47.562;7.508;2023-05-07T03:49:29;4.47;;;3.50;;
38117;SDS011;23928;47.562;7.508;2023-05-07T03:51:54;4.90;;;3.57;;
38117;SDS011;23928;47.562;7.508;2023-05-07T03:54:20;5.53;;;3.63;;
38117;SDS011;23928;47.562;7.508;2023-05-07T03:56:46;4.80;;;3.53;;
38117;SDS011;23928;47.562;7.508;2023-05-07T03:59:12;3.67;;;3.37;;
38117;SDS011;23928;47.562;7.508;2023-05-07T04:01:38;3.90;;;2.80;;
38117;SDS011;23928;47.562;7.508;2023-05-07T04:04:03;8.57;;;3.70;;
38117;SDS011;23928;47.562;7.508;2023-05-07T04:06:29;5.13;;;3.43;;
38117;SDS011;23928;47.562;7.508;2023-05-07T04:08:55;4.97;;;3.30;;
38117;SDS011;23928;47.562;7.508;2023-05-07T04:11:21;4.67;;;3.33;;
38117;SDS011;23928;47.562;7.508;2023-05-07T04:13:47;4.57;;;3.10;;
38117;SDS011;23928;47.562;7.508;2023-05-07T04:16:12;5.67;;;3.50;;
38117;SDS011;23928;47.562;7.508;2023-05-07T04:18:38;5.67;;;3.77;;
38117;SDS011;23928;47.562;7.508;2023-05-07T04:21:04;5.30;;;3.63;;
38117;SDS011;23928;47.562;7.508;2023-05-07T04:23:29;3.53;;;3.20;;
38117;SDS011;23928;47.562;7.508;2023-05-07T04:25:55;4.87;;;3.87;;
38117;SDS011;23928;47.562;7.508;2023-05-07T04:28:22;7.43;;;4.37;;
38117;SDS011;23928;47.562;7.508;2023-05-07T04:30:48;6.30;;;4.47;;
38117;SDS011;23928;47.562;7.508;2023-05-07T04:33:13;6.00;;;3.90;;
38117;SDS011;23928;47.562;7.508;2023-05-07T04:35:41;4.90;;;4.10;;
38117;SDS011;23928;47.562;7.508;2023-05-07T04:38:07;5.43;;;3.77;;
38117;SDS011;23928;47.562;7.508;2023-05-07T04:40:33;8.17;;;4.03;;
38117;SDS011;23928;47.562;7.508;2023-05-07T04:43:00;4.73;;;4.17;;
38117;SDS011;23928;47.562;7.508;2023-05-07T04:45:26;4.43;;;3.43;;
38117;SDS011;23928;47.562;7.508;2023-05-07T04:47:51;4.30;;;3.80;;
38117;SDS011;23928;47.562;7.508;2023-05-07T04:50:17;3.70;;;3.40;;
38117;SDS011;23928;47.562;7.508;2023-05-07T04:52:44;5.53;;;4.10;;
38117;SDS011;23928;47.562;7.508;2023-05-07T04:55:10;4.80;;;3.93;;
38117;SDS011;23928;47.562;7.508;2023-05-07T04:57:36;7.90;;;4.33;;
38117;SDS011;23928;47.562;7.508;2023-05-07T05:00:02;4.40;;;3.90;;
38117;SDS011;23928;47.562;7.508;2023-05-07T05:02:29;7.20;;;3.73;;
38117;SDS011;23928;47.562;7.508;2023-05-07T05:04:54;4.87;;;4.00;;
38117;SDS011;23928;47.562;7.508;2023-05-07T05:07:20;4.73;;;4.20;;
38117;SDS011;23928;47.562;7.508;2023-05-07T05:09:45;6.20;;;3.97;;
38117;SDS011;23928;47.562;7.508;2023-05-07T05:12:11;4.40;;;4.00;;
38117;SDS011;23928;47.562;7.508;2023-05-07T05:14:37;4.20;;;3.77;;
38117;SDS011;23928;47.562;7.508;2023-05-07T05:17:02;4.37;;;3.97;;
38117;SDS011;23928;47.562;7.508;2023-05-07T05:19:28;7.53;;;4.30;;
38117;SDS011;23928;47.562;7.508;2023-05-07T05:21:53;5.27;;;4.37;;
38117;SDS011;23928;47.562;7.508;2023-05-07T05:24:19;6.50;;;4.30;;
38117;SDS011;23928;47.562;7.508;2023-05-07T05:26:45;5.00;;;4.37;;
38117;SDS011;23928;47.562;7.508;2023-05-07T05:29:10;7.57;;;4.27;;
38117;SDS011;23928;47.562;7.508;2023-05-07T05:31:36;4.63;;;4.20;;
38117;SDS011;23928;47.562;7.508;2023-05-07T05:34:02;4.73;;;4.33;;
38117;SDS011;23928;47.562;7.508;2023-05-07T05:36:28;5.23;;;4.17;;
38117;SDS011;23928;47.562;7.508;2023-05-07T05:38:55;4.40;;;3.93;;
38117;SDS011;23928;47.562;7.508;2023-05-07T05:41:20;4.20;;;3.73;;
38117;SDS011;23928;47.562;7.508;2023-05-07T05:43:46;4.67;;;4.27;;
38117;SDS011;23928;47.562;7.508;2023-05-07T05:46:12;7.00;;;4.03;;
38117;SDS011;23928;47.562;7.508;2023-05-07T05:48:37;4.97;;;3.73;;
38117;SDS011;23928;47.562;7.508;2023-05-07T05:51:03;4.37;;;3.80;;
38117;SDS011;23928;47.562;7.508;2023-05-07T05:53:28;4.67;;;4.10;;
38117;SDS011;23928;47.562;7.508;2023-05-07T05:55:54;4.27;;;3.87;;
38117;SDS011;23928;47.562;7.508;2023-05-07T05:58:20;4.10;;;3.67;;
38117;SDS011;23928;47.562;7.508;2023-05-07T06:00:45;7.43;;;4.20;;
38117;SDS011;23928;47.562;7.508;2023-05-07T06:03:13;6.60;;;4.43;;
38117;SDS011;23928;47.562;7.508;2023-05-07T06:05:38;5.13;;;3.83;;
38117;SDS011;23928;47.562;7.508;2023-05-07T06:08:04;5.33;;;4.00;;
38117;SDS011;23928;47.562;7.508;2023-05-07T06:10:30;8.97;;;3.90;;
38117;SDS011;23928;47.562;7.508;2023-05-07T06:12:55;5.13;;;3.90;;
38117;SDS011;23928;47.562;7.508;2023-05-07T06:15:21;5.97;;;4.17;;
38117;SDS011;23928;47.562;7.508;2023-05-07T06:17:47;5.67;;;4.20;;
38117;SDS011;23928;47.562;7.508;2023-05-07T06:20:13;5.33;;;3.60;;
38117;SDS011;23928;47.562;7.508;2023-05-07T06:22:39;5.17;;;3.70;;
38117;SDS011;23928;47.562;7.508;2023-05-07T06:25:05;4.23;;;3.67;;
38117;SDS011;23928;47.562;7.508;2023-05-07T06:27:31;3.70;;;3.40;;
38117;SDS011;23928;47.562;7.508;2023-05-07T06:29:57;3.80;;;3.50;;
38117;SDS011;23928;47.562;7.508;2023-05-07T06:32:22;4.17;;;3.77;;
38117;SDS011;23928;47.562;7.508;2023-05-07T06:34:48;4.27;;;3.77;;
38117;SDS011;23928;47.562;7.508;2023-05-07T06:37:13;3.97;;;3.57;;
38117;SDS011;23928;47.562;7.508;2023-05-07T06:39:39;5.53;;;3.63;;
38117;SDS011;23928;47.562;7.508;2023-05-07T06:42:05;6.50;;;3.10;;
38117;SDS011;23928;47.562;7.508;2023-05-07T06:44:31;3.70;;;3.40;;
38117;SDS011;23928;47.562;7.508;2023-05-07T06:46:56;3.80;;;3.40;;
38117;SDS011;23928;47.562;7.508;2023-05-07T06:49:22;5.63;;;3.70;;
38117;SDS011;23928;47.562;7.508;2023-05-07T06:51:48;3.40;;;2.83;;
38117;SDS011;23928;47.562;7.508;2023-05-07T06:54:13;3.30;;;3.00;;
38117;SDS011;23928;47.562;7.508;2023-05-07T06:56:39;5.67;;;3.20;;
38117;SDS011;23928;47.562;7.508;2023-05-07T06:59:05;5.40;;;3.00;;
38117;SDS011;23928;47.562;7.508;2023-05-07T07:01:31;5.73;;;3.30;;
38117;SDS011;23928;47.562;7.508;2023-05-07T07:03:57;3.23;;;2.73;;
38117;SDS011;23928;47.562;7.508;2023-05-07T07:06:22;5.37;;;2.83;;
38117;SDS011;23928;47.562;7.508;2023-05-07T07:08:48;3.30;;;3.00;;
38117;SDS011;23928;47.562;7.508;2023-05-07T07:11:14;6.33;;;3.57;;
38117;SDS011;23928;47.562;7.508;2023-05-07T07:13:40;5.23;;;3.20;;
38117;SDS011;23928;47.562;7.508;2023-05-07T07:16:07;4.30;;;2.77;;
38117;SDS011;23928;47.562;7.508;2023-05-07T07:18:33;3.80;;;3.00;;
38117;SDS011;23928;47.562;7.508;2023-05-07T07:20:58;5.53;;;3.07;;
38117;SDS011;23928;47.562;7.508;2023-05-07T07:23:24;4.13;;;3.50;;
38117;SDS011;23928;47.562;7.508;2023-05-07T07:25:50;3.17;;;2.97;;
38117;SDS011;23928;47.562;7.508;2023-05-07T07:28:15;3.50;;;3.20;;
38117;SDS011;23928;47.562;7.508;2023-05-07T07:30:41;4.23;;;3.20;;
38117;SDS011;23928;47.562;7.508;2023-05-07T07:33:07;3.27;;;3.03;;
38117;SDS011;23928;47.562;7.508;2023-05-07T07:35:33;5.03;;;3.17;;
38117;SDS011;23928;47.562;7.508;2023-05-07T07:37:58;5.93;;;3.87;;
38117;SDS011;23928;47.562;7.508;2023-05-07T07:40:24;4.27;;;3.30;;
38117;SDS011;23928;47.562;7.508;2023-05-07T07:42:50;3.77;;;3.37;;
38117;SDS011;23928;47.562;7.508;2023-05-07T07:45:16;5.27;;;3.40;;
38117;SDS011;23928;47.562;7.508;2023-05-07T07:47:42;4.77;;;3.20;;
38117;SDS011;23928;47.562;7.508;2023-05-07T07:50:08;6.53;;;4.23;;
38117;SDS011;23928;47.562;7.508;2023-05-07T07:52:34;4.40;;;4.00;;
38117;SDS011;23928;47.562;7.508;2023-05-07T07:54:59;5.77;;;3.20;;
38117;SDS011;23928;47.562;7.508;2023-05-07T07:57:25;3.97;;;3.47;;
38117;SDS011;23928;47.562;7.508;2023-05-07T07:59:51;3.67;;;3.33;;
38117;SDS011;23928;47.562;7.508;2023-05-07T08:02:16;3.77;;;3.30;;
38117;SDS011;23928;47.562;7.508;2023-05-07T08:04:42;4.37;;;3.40;;
38117;SDS011;23928;47.562;7.508;2023-05-07T08:07:09;5.67;;;3.43;;
38117;SDS011;23928;47.562;7.508;2023-05-07T08:09:35;3.60;;;2.83;;
38117;SDS011;23928;47.562;7.508;2023-05-07T08:12:01;5.73;;;3.40;;
38117;SDS011;23928;47.562;7.508;2023-05-07T08:14:27;4.43;;;3.27;;
38117;SDS011;23928;47.562;7.508;2023-05-07T08:16:53;3.40;;;3.10;;
38117;SDS011;23928;47.562;7.508;2023-05-07T08:19:19;6.27;;;3.47;;
38117;SDS011;23928;47.562;7.508;2023-05-07T08:21:45;3.97;;;3.37;;
38117;SDS011;23928;47.562;7.508;2023-05-07T08:24:12;5.37;;;3.07;;
38117;SDS011;23928;47.562;7.508;2023-05-07T08:26:38;4.80;;;3.00;;
38117;SDS011;23928;47.562;7.508;2023-05-07T08:29:04;4.37;;;3.33;;
38117;SDS011;23928;47.562;7.508;2023-05-07T08:31:30;3.20;;;2.90;;
38117;SDS011;23928;47.562;7.508;2023-05-07T08:33:57;5.43;;;3.40;;
38117;SDS011;23928;47.562;7.508;2023-05-07T08:36:23;5.10;;;3.10;;
38117;SDS011;23928;47.562;7.508;2023-05-07T08:38:49;4.33;;;3.03;;
38117;SDS011;23928;47.562;7.508;2023-05-07T08:41:15;5.23;;;3.70;;
38117;SDS011;23928;47.562;7.508;2023-05-07T08:43:41;4.40;;;3.60;;
38117;SDS011;23928;47.562;7.508;2023-05-07T08:46:09;3.90;;;3.30;;
38117;SDS011;23928;47.562;7.508;2023-05-07T08:48:36;3.70;;;2.97;;
38117;SDS011;23928;47.562;7.508;2023-05-07T08:51:02;5.03;;;3.73;;
38117;SDS011;23928;47.562;7.508;2023-05-07T08:53:28;4.03;;;3.37;;
38117;SDS011;23928;47.562;7.508;2023-05-07T08:55:53;3.90;;;3.37;;
38117;SDS011;23928;47.562;7.508;2023-05-07T08:58:20;6.10;;;3.67;;
38117;SDS011;23928;47.562;7.508;2023-05-07T09:00:45;3.90;;;3.53;;
38117;SDS011;23928;47.562;7.508;2023-05-07T09:03:12;3.90;;;3.60;;
38117;SDS011;23928;47.562;7.508;2023-05-07T09:05:39;3.63;;;3.33;;
38117;SDS011;23928;47.562;7.508;2023-05-07T09:08:05;6.00;;;3.77;;
38117;SDS011;23928;47.562;7.508;2023-05-07T09:10:32;3.87;;;3.43;;
38117;SDS011;23928;47.562;7.508;2023-05-07T09:12:59;6.07;;;3.43;;
38117;SDS011;23928;47.562;7.508;2023-05-07T09:15:25;6.17;;;3.50;;
38117;SDS011;23928;47.562;7.508;2023-05-07T09:17:52;3.20;;;2.60;;
38117;SDS011;23928;47.562;7.508;2023-05-07T09:20:18;3.10;;;2.80;;
38117;SDS011;23928;47.562;7.508;2023-05-07T09:22:44;2.97;;;2.67;;
38117;SDS011;23928;47.562;7.508;2023-05-07T09:25:10;3.30;;;2.10;;
38117;SDS011;23928;47.562;7.508;2023-05-07T09:27:36;3.00;;;1.90;;
38117;SDS011;23928;47.562;7.508;2023-05-07T09:30:05;2.00;;;1.83;;
38117;SDS011;23928;47.562;7.508;2023-05-07T09:32:34;2.17;;;1.83;;
38117;SDS011;23928;47.562;7.508;2023-05-07T09:35:00;2.03;;;1.57;;
38117;SDS011;23928;47.562;7.508;2023-05-07T09:37:28;1.90;;;1.80;;
38117;SDS011;23928;47.562;7.508;2023-05-07T09:39:55;2.33;;;1.77;;
38117;SDS011;23928;47.562;7.508;2023-05-07T09:42:24;5.90;;;1.77;;
38117;SDS011;23928;47.562;7.508;2023-05-07T09:44:52;1.63;;;1.53;;
38117;SDS011;23928;47.562;7.508;2023-05-07T09:47:18;2.30;;;1.70;;
38117;SDS011;23928;47.562;7.508;2023-05-07T09:49:46;2.57;;;1.90;;
38117;SDS011;23928;47.562;7.508;2023-05-07T09:52:13;2.47;;;1.80;;
38117;SDS011;23928;47.562;7.508;2023-05-07T09:54:39;2.17;;;1.57;;
38117;SDS011;23928;47.562;7.508;2023-05-07T09:57:08;4.57;;;1.60;;
38117;SDS011;23928;47.562;7.508;2023-05-07T09:59:36;2.43;;;1.70;;
38117;SDS011;23928;47.562;7.508;2023-05-07T10:02:03;3.10;;;1.90;;
38117;SDS011;23928;47.562;7.508;2023-05-07T10:04:29;1.80;;;1.70;;
38117;SDS011;23928;47.562;7.508;2023-05-07T10:06:56;2.43;;;1.50;;
38117;SDS011;23928;47.562;7.508;2023-05-07T10:09:23;2.77;;;1.70;;
38117;SDS011;23928;47.562;7.508;2023-05-07T10:11:50;2.73;;;1.90;;
38117;SDS011;23928;47.562;7.508;2023-05-07T10:14:16;2.27;;;2.07;;
38117;SDS011;23928;47.562;7.508;2023-05-07T10:16:42;2.13;;;1.90;;
38117;SDS011;23928;47.562;7.508;2023-05-07T10:19:08;3.53;;;1.90;;
38117;SDS011;23928;47.562;7.508;2023-05-07T10:21:37;3.50;;;2.03;;
38117;SDS011;23928;47.562;7.508;2023-05-07T10:24:10;2.97;;;1.90;;
38117;SDS011;23928;47.562;7.508;2023-05-07T10:26:40;3.33;;;1.90;;
38117;SDS011;23928;47.562;7.508;2023-05-07T10:35:10;2.83;;;2.00;;
38117;SDS011;23928;47.562;7.508;2023-05-07T10:37:42;2.07;;;1.87;;
38117;SDS011;23928;47.562;7.508;2023-05-07T10:40:09;2.87;;;1.70;;
38117;SDS011;23928;47.562;7.508;2023-05-07T10:42:35;3.63;;;2.20;;
38117;SDS011;23928;47.562;7.508;2023-05-07T10:45:13;3.57;;;2.13;;
38117;SDS011;23928;47.562;7.508;2023-05-07T10:50:35;1.97;;;1.87;;
38117;SDS011;23928;47.562;7.508;2023-05-07T10:56:23;2.30;;;2.10;;
38117;SDS011;23928;47.562;7.508;2023-05-07T10:58:54;1.70;;;1.60;;
38117;SDS011;23928;47.562;7.508;2023-05-07T11:04:25;3.17;;;2.00;;
38117;SDS011;23928;47.562;7.508;2023-05-07T11:15:11;2.73;;;2.00;;
38117;SDS011;23928;47.562;7.508;2023-05-07T11:17:58;2.07;;;1.97;;
38117;SDS011;23928;47.562;7.508;2023-05-07T11:28:27;2.50;;;2.20;;
38117;SDS011;23928;47.562;7.508;2023-05-07T11:30:53;2.90;;;2.47;;
38117;SDS011;23928;47.562;7.508;2023-05-07T11:33:19;2.37;;;2.17;;
38117;SDS011;23928;47.562;7.508;2023-05-07T11:35:45;2.73;;;1.80;;
38117;SDS011;23928;47.562;7.508;2023-05-07T11:38:12;2.90;;;1.97;;
38117;SDS011;23928;47.562;7.508;2023-05-07T11:40:54;2.70;;;1.90;;
38117;SDS011;23928;47.562;7.508;2023-05-07T11:43:25;2.37;;;1.90;;
38117;SDS011;23928;47.562;7.508;2023-05-07T11:45:52;2.57;;;2.00;;
38117;SDS011;23928;47.562;7.508;2023-05-07T11:48:18;2.67;;;1.90;;
38117;SDS011;23928;47.562;7.508;2023-05-07T11:50:51;1.70;;;1.60;;
38117;SDS011;23928;47.562;7.508;2023-05-07T11:53:18;1.57;;;1.47;;
38117;SDS011;23928;47.562;7.508;2023-05-07T11:55:45;1.60;;;1.50;;
38117;SDS011;23928;47.562;7.508;2023-05-07T11:58:11;4.23;;;1.77;;
38117;SDS011;23928;47.562;7.508;2023-05-07T12:00:38;2.83;;;1.50;;
38117;SDS011;23928;47.562;7.508;2023-05-07T12:03:04;1.67;;;1.57;;
38117;SDS011;23928;47.562;7.508;2023-05-07T12:05:30;2.30;;;1.63;;
38117;SDS011;23928;47.562;7.508;2023-05-07T12:07:58;1.77;;;1.63;;
38117;SDS011;23928;47.562;7.508;2023-05-07T12:10:24;3.73;;;1.67;;
38117;SDS011;23928;47.562;7.508;2023-05-07T12:12:50;2.17;;;1.40;;
38117;SDS011;23928;47.562;7.508;2023-05-07T12:15:22;1.80;;;1.70;;
38117;SDS011;23928;47.562;7.508;2023-05-07T12:17:47;2.50;;;1.73;;
38117;SDS011;23928;47.562;7.508;2023-05-07T12:20:14;5.17;;;1.70;;
38117;SDS011;23928;47.562;7.508;2023-05-07T12:22:40;2.77;;;1.57;;
38117;SDS011;23928;47.562;7.508;2023-05-07T12:25:06;2.77;;;1.40;;
38117;SDS011;23928;47.562;7.508;2023-05-07T12:27:32;2.10;;;1.50;;
38117;SDS011;23928;47.562;7.508;2023-05-07T12:30:03;1.80;;;1.67;;
38117;SDS011;23928;47.562;7.508;2023-05-07T12:32:28;3.63;;;1.90;;
38117;SDS011;23928;47.562;7.508;2023-05-07T12:34:54;1.70;;;1.60;;
38117;SDS011;23928;47.562;7.508;2023-05-07T12:37:23;4.80;;;2.10;;
38117;SDS011;23928;47.562;7.508;2023-05-07T12:40:03;2.80;;;1.97;;
38117;SDS011;23928;47.562;7.508;2023-05-07T12:42:36;3.20;;;1.90;;
38117;SDS011;23928;47.562;7.508;2023-05-07T12:45:12;2.10;;;2.00;;
38117;SDS011;23928;47.562;7.508;2023-05-07T12:47:46;2.57;;;1.83;;
38117;SDS011;23928;47.562;7.508;2023-05-07T12:50:15;2.20;;;1.80;;
38117;SDS011;23928;47.562;7.508;2023-05-07T12:52:42;3.40;;;1.87;;
38117;SDS011;23928;47.562;7.508;2023-05-07T12:55:13;2.83;;;1.43;;
38117;SDS011;23928;47.562;7.508;2023-05-07T12:57:45;2.13;;;1.50;;
38117;SDS011;23928;47.562;7.508;2023-05-07T13:00:13;3.20;;;1.70;;
38117;SDS011;23928;47.562;7.508;2023-05-07T13:02:39;1.83;;;1.50;;
38117;SDS011;23928;47.562;7.508;2023-05-07T13:05:06;2.37;;;1.47;;
38117;SDS011;23928;47.562;7.508;2023-05-07T13:07:32;2.80;;;1.77;;
38117;SDS011;23928;47.562;7.508;2023-05-07T13:09:58;2.23;;;1.70;;
38117;SDS011;23928;47.562;7.508;2023-05-07T13:12:23;3.87;;;1.40;;
38117;SDS011;23928;47.562;7.508;2023-05-07T13:14:49;1.67;;;1.57;;
38117;SDS011;23928;47.562;7.508;2023-05-07T13:17:14;2.67;;;1.50;;
38117;SDS011;23928;47.562;7.508;2023-05-07T13:19:40;2.77;;;1.73;;
38117;SDS011;23928;47.562;7.508;2023-05-07T13:22:06;2.53;;;1.60;;
38117;SDS011;23928;47.562;7.508;2023-05-07T13:24:31;2.30;;;1.57;;
38117;SDS011;23928;47.562;7.508;2023-05-07T13:26:57;2.63;;;1.73;;
38117;SDS011;23928;47.562;7.508;2023-05-07T13:29:22;2.90;;;1.50;;
38117;SDS011;23928;47.562;7.508;2023-05-07T13:31:53;2.23;;;1.63;;
38117;SDS011;23928;47.562;7.508;2023-05-07T13:34:19;1.50;;;1.37;;
38117;SDS011;23928;47.562;7.508;2023-05-07T13:36:45;2.07;;;1.60;;
38117;SDS011;23928;47.562;7.508;2023-05-07T13:39:10;1.77;;;1.67;;
38117;SDS011;23928;47.562;7.508;2023-05-07T13:41:36;1.93;;;1.70;;
38117;SDS011;23928;47.562;7.508;2023-05-07T13:44:02;1.77;;;1.50;;
38117;SDS011;23928;47.562;7.508;2023-05-07T13:46:27;1.87;;;1.40;;
38117;SDS011;23928;47.562;7.508;2023-05-07T13:48:54;2.97;;;1.60;;
38117;SDS011;23928;47.562;7.508;2023-05-07T13:51:20;1.80;;;1.70;;
38117;SDS011;23928;47.562;7.508;2023-05-07T13:53:46;1.33;;;1.23;;
38117;SDS011;23928;47.562;7.508;2023-05-07T13:56:12;1.70;;;1.60;;
38117;SDS011;23928;47.562;7.508;2023-05-07T13:58:39;2.40;;;1.77;;
38117;SDS011;23928;47.562;7.508;2023-05-07T14:01:04;2.80;;;1.60;;
38117;SDS011;23928;47.562;7.508;2023-05-07T14:03:30;1.37;;;1.27;;
38117;SDS011;23928;47.562;7.508;2023-05-07T14:05:57;1.97;;;1.60;;
38117;SDS011;23928;47.562;7.508;2023-05-07T14:08:24;3.23;;;1.67;;
38117;SDS011;23928;47.562;7.508;2023-05-07T14:10:50;1.50;;;1.27;;
38117;SDS011;23928;47.562;7.508;2023-05-07T14:13:16;3.10;;;1.20;;
38117;SDS011;23928;47.562;7.508;2023-05-07T14:15:42;1.70;;;1.23;;
38117;SDS011;23928;47.562;7.508;2023-05-07T14:18:11;1.77;;;1.33;;
38117;SDS011;23928;47.562;7.508;2023-05-07T14:20:40;1.30;;;1.20;;
38117;SDS011;23928;47.562;7.508;2023-05-07T14:23:06;1.20;;;1.10;;
38117;SDS011;23928;47.562;7.508;2023-05-07T14:25:31;1.17;;;1.03;;
38117;SDS011;23928;47.562;7.508;2023-05-07T14:27:57;1.93;;;1.27;;
38117;SDS011;23928;47.562;7.508;2023-05-07T14:30:22;1.63;;;1.53;;
38117;SDS011;23928;47.562;7.508;2023-05-07T14:32:49;1.30;;;1.07;;
38117;SDS011;23928;47.562;7.508;2023-05-07T14:35:15;2.23;;;1.20;;
38117;SDS011;23928;47.562;7.508;2023-05-07T14:37:41;3.33;;;1.20;;
38117;SDS011;23928;47.562;7.508;2023-05-07T14:40:07;1.30;;;1.20;;
38117;SDS011;23928;47.562;7.508;2023-05-07T14:42:33;2.10;;;1.10;;
38117;SDS011;23928;47.562;7.508;2023-05-07T14:44:59;2.60;;;1.23;;
38117;SDS011;23928;47.562;7.508;2023-05-07T14:47:25;2.07;;;1.20;;
38117;SDS011;23928;47.562;7.508;2023-05-07T14:49:50;1.20;;;1.10;;
38117;SDS011;23928;47.562;7.508;2023-05-07T14:52:17;1.60;;;1.10;;
38117;SDS011;23928;47.562;7.508;2023-05-07T14:54:43;1.70;;;1.10;;
38117;SDS011;23928;47.562;7.508;2023-05-07T14:57:09;1.77;;;1.13;;
38117;SDS011;23928;47.562;7.508;2023-05-07T14:59:38;1.17;;;1.10;;
38117;SDS011;23928;47.562;7.508;2023-05-07T15:02:04;2.13;;;1.10;;
38117;SDS011;23928;47.562;7.508;2023-05-07T15:04:30;1.00;;;1.00;;
38117;SDS011;23928;47.562;7.508;2023-05-07T15:06:56;2.60;;;1.17;;
38117;SDS011;23928;47.562;7.508;2023-05-07T15:09:21;1.10;;;1.10;;
38117;SDS011;23928;47.562;7.508;2023-05-07T15:11:47;1.50;;;1.30;;
38117;SDS011;23928;47.562;7.508;2023-05-07T15:14:12;1.37;;;1.27;;
38117;SDS011;23928;47.562;7.508;2023-05-07T15:16:38;1.50;;;1.40;;